Time;durP1;ratioP1;P1;durP2;ratioP2;P2;SDS_P1;SDS_P2;PMS_P1;PMS_P2;Temp;Humidity;BMP_temperature;BMP_pressure;BME280_temperature;BME280_humidity;BME280_pressure;Samples;Min_cycle;Max_cycle;Signal;HPM_P1;HPM_P2
2021/08/26 00:07:53;;;;;;;;;19.00;18.33;;;;;19.77;53.53;101600.97;5091741;28;45455;-90
2021/08/26 00:10:22;;;;;;;;;19.67;17.67;;;;;19.58;53.56;101584.19;5079664;28;45560;-90
2021/08/26 00:12:48;;;;;;;;;20.67;17.67;;;;;19.69;53.59;101602.81;5079455;28;45440;-90
2021/08/26 00:15:13;;;;;;;;;20.33;16.67;;;;;19.67;53.98;101602.78;5080978;27;45341;-90
2021/08/26 00:17:40;;;;;;;;;18.33;14.67;;;;;19.55;53.47;101595.75;5078659;28;45376;-90
2021/08/26 00:20:08;;;;;;;;;17.67;17.00;;;;;19.51;53.96;101586.00;5079451;27;45305;-90
2021/08/26 00:22:36;;;;;;;;;21.00;17.67;;;;;19.61;53.98;101615.28;5078428;28;46351;-90
2021/08/26 00:25:03;;;;;;;;;16.33;15.33;;;;;19.60;54.39;101618.84;5082943;27;45310;-90
2021/08/26 00:27:31;;;;;;;;;20.00;15.67;;;;;19.58;54.18;101623.31;5082468;27;45275;-89
2021/08/26 00:29:57;;;;;;;;;17.00;16.33;;;;;19.45;54.19;101599.38;5089956;28;45421;-90
2021/08/26 00:32:22;;;;;;;;;16.67;16.67;;;;;19.49;54.48;101611.81;5099288;27;46110;-89
2021/08/26 00:34:48;;;;;;;;;24.00;20.00;;;;;19.50;54.43;101613.56;5100534;28;44811;-89
2021/08/26 00:37:13;;;;;;;;;17.67;14.67;;;;;19.35;54.12;101598.56;5102165;27;44733;-88
2021/08/26 00:39:39;;;;;;;;;22.00;16.67;;;;;19.29;54.44;101599.47;5094074;27;44784;-90
2021/08/26 00:42:05;;;;;;;;;15.67;15.67;;;;;19.27;54.20;101595.06;5086537;27;45364;-91
2021/08/26 00:44:30;;;;;;;;;14.00;14.00;;;;;19.27;54.87;101601.25;5083440;28;45196;-91
2021/08/26 00:46:56;;;;;;;;;21.75;17.75;;;;;19.31;54.81;101613.66;5083895;27;45373;-91
2021/08/26 00:49:21;;;;;;;;;17.67;15.33;;;;;19.22;54.71;101603.06;5083999;28;45218;-90
2021/08/26 00:51:47;;;;;;;;;16.00;13.67;;;;;19.20;54.72;101600.41;5081813;28;48102;-90
2021/08/26 00:54:13;;;;;;;;;15.00;14.00;;;;;19.15;55.00;101591.53;5081993;28;45431;-90
2021/08/26 00:56:39;;;;;;;;;14.00;13.00;;;;;19.27;54.82;101611.91;5081311;28;45245;-91
2021/08/26 00:59:06;;;;;;;;;16.67;14.00;;;;;19.10;54.88;101591.53;5083514;27;45480;-90
2021/08/26 01:01:50;;;;;;;;;14.67;12.33;;;;;19.20;55.09;101608.41;5082057;28;47381;-90
2021/08/26 01:04:35;;;;;;;;;10.67;8.33;;;;;19.17;55.17;101600.41;5080923;28;45436;-90
2021/08/26 01:07:14;;;;;;;;;13.33;12.67;;;;;19.07;55.04;101590.66;5081603;27;45277;-89
2021/08/26 01:09:46;;;;;;;;;12.67;10.00;;;;;19.05;54.97;101585.34;5081693;28;45575;-90
2021/08/26 01:12:16;;;;;;;;;11.33;11.33;;;;;19.09;55.06;101592.44;5079317;28;47580;-90
2021/08/26 01:14:43;;;;;;;;;13.67;10.33;;;;;18.95;55.05;101579.16;5081144;27;45411;-90
2021/08/26 01:17:16;;;;;;;;;10.67;10.33;;;;;19.02;55.04;101589.78;5081269;27;45278;-90
2021/08/26 01:19:41;;;;;;;;;9.00;9.00;;;;;18.90;55.29;101580.06;5081765;27;45368;-90
2021/08/26 01:22:06;;;;;;;;;13.00;13.00;;;;;19.05;55.39;101598.66;5079205;28;48067;-89
2021/08/26 01:24:33;;;;;;;;;10.67;9.33;;;;;18.94;55.19;101587.16;5081364;28;45250;-90
2021/08/26 01:27:01;;;;;;;;;10.33;8.67;;;;;18.95;55.90;101589.81;5079527;28;45317;-90
2021/08/26 01:29:27;;;;;;;;;11.67;11.67;;;;;18.94;55.43;101582.72;5080759;27;45415;-90
2021/08/26 01:31:53;;;;;;;;;7.67;7.67;;;;;18.86;55.75;101577.44;5078742;28;47148;-89
2021/08/26 01:34:20;;;;;;;;;9.33;8.33;;;;;18.84;55.56;101576.56;5081397;27;45239;-90
2021/08/26 01:36:46;;;;;;;;;7.67;7.67;;;;;18.91;55.72;101581.84;5081027;28;45580;-90
2021/08/26 01:39:14;;;;;;;;;8.00;8.00;;;;;18.94;55.49;101589.81;5080850;28;45295;-90
2021/08/26 01:41:49;;;;;;;;;7.00;6.67;;;;;18.92;55.78;101583.63;5081050;27;46906;-90
2021/08/26 01:44:22;;;;;;;;;10.33;7.67;;;;;18.74;55.66;101556.16;5080881;28;45379;-90
2021/08/26 01:46:49;;;;;;;;;6.33;6.33;;;;;18.78;55.41;101565.91;5080533;28;45349;-90
2021/08/26 01:49:15;;;;;;;;;8.67;8.33;;;;;18.73;55.78;101562.38;5080943;28;45380;-90
2021/08/26 01:51:40;;;;;;;;;8.00;8.00;;;;;18.72;56.04;101560.59;5082889;27;45334;-90
2021/08/26 01:54:07;;;;;;;;;6.00;6.00;;;;;18.81;56.00;101583.66;5080582;28;45340;-90
2021/08/26 01:56:34;;;;;;;;;10.67;7.00;;;;;18.69;56.02;101571.25;5080970;28;45458;-90
2021/08/26 01:58:59;;;;;;;;;10.33;7.00;;;;;18.60;55.94;101554.44;5079793;28;45465;-91
2021/08/26 02:01:25;;;;;;;;;7.33;7.33;;;;;18.68;56.36;101572.13;5080682;27;45282;-89
2021/08/26 02:03:50;;;;;;;;;7.00;6.67;;;;;18.72;56.28;101581.88;5079231;28;45347;-90
2021/08/26 02:06:15;;;;;;;;;10.33;9.00;;;;;18.59;55.72;101565.94;5079676;28;45446;-90
2021/08/26 02:08:41;;;;;;;;;10.33;9.33;;;;;18.58;56.42;101557.97;5081666;27;45369;-90
2021/08/26 02:11:06;;;;;;;;;8.33;8.00;;;;;18.51;56.40;101546.44;5084918;28;47198;-90
2021/08/26 02:13:32;;;;;;;;;9.33;9.00;;;;;18.68;56.68;101565.03;5093290;27;45437;-89
2021/08/26 02:15:57;;;;;;;;;9.67;9.67;;;;;18.56;56.55;101547.34;5087096;28;45296;-90
2021/08/26 02:18:23;;;;;;;;;6.67;6.67;;;;;18.56;56.37;101552.66;5080804;28;45445;-90
2021/08/26 02:20:48;;;;;;;;;9.00;7.33;;;;;18.56;56.55;101555.31;5082102;28;47019;-90
2021/08/26 02:23:13;;;;;;;;;10.67;9.67;;;;;18.68;56.91;101581.03;5083384;27;45295;-91
2021/08/26 02:25:39;;;;;;;;;8.00;7.00;;;;;18.67;56.65;101578.38;5083163;28;45438;-90
2021/08/26 02:28:05;;;;;;;;;9.33;9.33;;;;;18.65;56.58;101574.81;5101310;27;45438;-90
2021/08/26 02:30:30;;;;;;;;;10.00;10.00;;;;;18.50;56.79;101552.69;5082239;27;46197;-90
2021/08/26 02:32:56;;;;;;;;;9.00;9.00;;;;;18.59;57.01;101573.94;5083859;28;45286;-89
2021/08/26 02:35:21;;;;;;;;;13.33;11.00;;;;;18.57;56.93;101562.41;5091403;27;45336;-89
2021/08/26 02:37:47;;;;;;;;;12.67;10.00;;;;;18.44;56.41;101555.34;5096328;27;44792;-89
2021/08/26 02:40:12;;;;;;;;;12.67;12.00;;;;;18.45;56.54;101567.75;5088942;28;47273;-90
2021/08/26 02:42:38;;;;;;;;;14.33;11.00;;;;;18.46;56.68;101574.88;5083266;28;45436;-89
2021/08/26 02:45:04;;;;;;;;;15.33;14.00;;;;;18.43;57.03;101577.53;5082419;27;45331;-89
2021/08/26 02:47:30;;;;;;;;;16.67;14.00;;;;;18.28;57.08;101556.28;5083121;28;45260;-89
2021/08/26 02:49:55;;;;;;;;;14.00;13.00;;;;;18.26;56.96;101549.16;5096444;28;45343;-90
2021/08/26 02:52:21;;;;;;;;;12.33;11.00;;;;;18.17;56.92;101539.41;5090560;27;45373;-89
2021/08/26 02:54:46;;;;;;;;;14.67;13.00;;;;;18.27;57.26;101550.97;5087888;28;45251;-90
2021/08/26 02:57:12;;;;;;;;;13.00;11.00;;;;;18.12;57.21;101528.78;5090100;27;45482;-90
2021/08/26 02:59:37;;;;;;;;;12.00;10.33;;;;;18.24;57.50;101556.28;5082143;28;47492;-90
2021/08/26 03:02:03;;;;;;;;;10.00;8.67;;;;;18.17;57.23;101556.28;5082165;28;45287;-90
2021/08/26 03:04:28;;;;;;;;;8.33;7.33;;;;;18.22;57.25;101555.38;5087131;27;45598;-89
2021/08/26 03:06:54;;;;;;;;;6.33;6.33;;;;;18.15;57.41;101558.03;5091636;27;45490;-90
2021/08/26 03:09:19;;;;;;;;;5.00;5.00;;;;;18.06;57.33;101545.59;5091595;28;47094;-90
2021/08/26 03:11:45;;;;;;;;;6.67;6.33;;;;;18.10;57.60;101554.50;5094763;27;45390;-90
2021/08/26 03:14:10;;;;;;;;;7.33;6.67;;;;;17.99;57.22;101545.63;5093395;28;45530;-90
2021/08/26 03:16:36;;;;;;;;;6.33;5.67;;;;;18.05;57.48;101558.91;5095055;27;44779;-90
2021/08/26 03:19:01;;;;;;;;;4.33;4.33;;;;;17.92;57.34;101536.75;5126108;27;45333;-90
2021/08/26 03:21:27;;;;;;;;;5.00;5.00;;;;;17.94;57.85;101540.31;5092362;27;45368;-91
2021/08/26 03:23:53;;;;;;;;;5.00;5.00;;;;;18.02;57.65;101558.94;5091031;28;45393;-90
2021/08/26 03:26:18;;;;;;;;;4.00;4.00;;;;;17.86;57.75;101531.44;5093449;28;45658;-91
2021/08/26 03:28:44;;;;;;;;;6.00;6.00;;;;;17.92;57.69;101542.97;5095174;27;45067;-89
2021/08/26 03:31:09;;;;;;;;;4.00;4.00;;;;;17.92;57.65;101539.41;5093782;27;45207;-90
2021/08/26 03:33:35;;;;;;;;;4.33;4.33;;;;;17.89;57.80;101537.66;5091718;27;45329;-89
2021/08/26 03:36:01;;;;;;;;;4.00;4.00;;;;;17.87;57.82;101539.44;5090845;27;45401;-90
2021/08/26 03:38:26;;;;;;;;;5.00;3.67;;;;;17.86;58.08;101537.66;5095177;28;46916;-89
2021/08/26 03:40:52;;;;;;;;;4.00;4.00;;;;;17.80;57.90;101542.97;5097185;27;45260;-89
2021/08/26 03:43:17;;;;;;;;;6.00;4.33;;;;;17.79;57.83;101538.53;5093998;28;44736;-89
2021/08/26 03:45:43;;;;;;;;;8.00;6.00;;;;;17.83;58.09;101548.28;5086725;28;45502;-90
2021/08/26 03:48:10;;;;;;;;;5.00;5.00;;;;;17.69;58.26;101533.22;5084047;28;47075;-90
2021/08/26 03:50:35;;;;;;;;;5.00;5.00;;;;;17.80;58.02;101548.28;5086415;28;45698;-89
2021/08/26 03:53:01;;;;;;;;;5.00;5.00;;;;;17.65;58.19;101520.81;5086007;28;45407;-90
2021/08/26 03:55:26;;;;;;;;;5.67;5.67;;;;;17.75;58.33;101534.09;5090956;27;45282;-90
2021/08/26 03:57:52;;;;;;;;;6.00;6.00;;;;;17.72;58.14;101524.38;5091592;28;47187;-90
2021/08/26 04:00:17;;;;;;;;;5.33;5.33;;;;;17.66;57.85;101522.56;5087698;27;45315;-90
2021/08/26 04:02:43;;;;;;;;;5.00;4.67;;;;;17.77;57.65;101541.19;5081582;28;45418;-89
2021/08/26 04:05:08;;;;;;;;;6.00;6.00;;;;;17.82;58.29;101543.84;5084156;27;45381;-90
2021/08/26 04:07:34;;;;;;;;;5.00;5.00;;;;;17.73;57.90;101533.22;5086317;28;48446;-90
2021/08/26 04:10:00;;;;;;;;;5.00;4.00;;;;;17.82;58.05;101551.84;5094798;27;45252;-91
2021/08/26 04:12:27;;;;;;;;;5.00;5.00;;;;;17.75;58.15;101547.38;5100999;28;45177;-89
2021/08/26 04:14:53;;;;;;;;;5.00;5.00;;;;;17.71;58.21;101544.75;5097064;28;45202;-90
2021/08/26 04:17:19;;;;;;;;;6.00;5.00;;;;;17.64;57.97;101540.28;5100586;28;47261;-90
2021/08/26 04:19:44;;;;;;;;;7.67;5.00;;;;;17.66;58.11;101538.53;5104712;28;44990;-90
2021/08/26 04:22:10;;;;;;;;;4.00;4.00;;;;;17.67;58.22;101539.41;5104362;27;44776;-90
2021/08/26 04:24:35;;;;;;;;;9.00;4.00;;;;;17.78;57.81;101566.03;5102069;28;44824;-88
2021/08/26 04:27:01;;;;;;;;;4.00;3.00;;;;;17.74;57.95;101559.81;5088397;28;47286;-91
2021/08/26 04:29:26;;;;;;;;;3.00;3.00;;;;;17.76;57.98;101558.06;5082863;28;45394;-90
2021/08/26 04:31:51;;;;;;;;;6.00;5.00;;;;;17.62;58.32;101534.09;5083411;28;45333;-90
2021/08/26 04:34:17;;;;;;;;;4.33;3.67;;;;;17.70;58.09;101536.78;5084615;27;45301;-91
2021/08/26 04:36:43;;;;;;;;;5.00;4.00;;;;;17.79;58.10;101551.81;5083638;28;48360;-90
2021/08/26 04:39:09;;;;;;;;;3.67;3.67;;;;;17.79;58.04;101554.47;5084447;28;45342;-89
2021/08/26 04:41:35;;;;;;;;;4.33;4.00;;;;;17.68;58.02;101527.91;5084227;27;45298;-90
2021/08/26 04:44:00;;;;;;;;;4.00;2.00;;;;;17.65;58.09;101528.78;5082053;28;45495;-91
2021/08/26 04:46:27;;;;;;;;;6.00;4.33;;;;;17.55;58.29;101505.75;5082609;27;45349;-91
2021/08/26 04:48:52;;;;;;;;;4.00;3.67;;;;;17.69;58.08;101541.19;5081276;28;45338;-90
2021/08/26 04:51:18;;;;;;;;;3.00;3.00;;;;;17.54;58.21;101509.28;5080863;27;45349;-90
2021/08/26 04:53:43;;;;;;;;;3.00;3.00;;;;;17.52;58.19;101522.56;5082024;28;45669;-89
2021/08/26 04:56:11;;;;;;;;;5.33;3.00;;;;;17.55;58.34;101521.69;5082031;28;47115;-90
2021/08/26 04:58:39;;;;;;;;;4.00;4.00;;;;;17.50;58.98;101515.47;5089444;27;45401;-90
2021/08/26 05:01:04;;;;;;;;;4.33;4.00;;;;;17.47;58.87;101517.25;5102267;28;45350;-90
2021/08/26 05:03:30;;;;;;;;;2.00;2.00;;;;;17.48;58.65;101524.34;5102889;28;45227;-90
2021/08/26 05:05:55;;;;;;;;;2.00;2.00;;;;;17.47;58.98;101522.56;5105111;27;45287;-91
2021/08/26 05:08:21;;;;;;;;;1.00;1.00;;;;;17.54;58.90;101530.53;5106206;27;45416;-89
2021/08/26 05:10:46;;;;;;;;;3.33;3.00;;;;;17.51;58.85;101525.22;5097277;27;44617;-84
2021/08/26 05:13:11;;;;;;;;;4.00;3.00;;;;;17.62;59.35;101543.84;5097922;27;45146;-84
2021/08/26 05:15:38;;;;;;;;;2.33;2.33;;;;;17.67;59.05;101553.59;5120319;27;45187;-84
2021/08/26 05:18:04;;;;;;;;;2.33;2.33;;;;;17.71;59.03;101550.06;5124720;27;44895;-86
2021/08/26 05:20:29;;;;;;;;;2.00;2.00;;;;;17.71;59.22;101550.06;5107364;27;45199;-84
2021/08/26 05:22:57;;;;;;;;;2.33;2.33;;;;;17.73;59.27;101555.38;5101770;27;45434;-85
2021/08/26 05:25:22;;;;;;;;;3.33;3.00;;;;;17.71;59.11;101544.75;5101564;27;45289;-85
2021/08/26 05:27:47;;;;;;;;;3.67;2.67;;;;;17.68;59.54;101546.53;5098955;27;45874;-84
2021/08/26 05:30:13;;;;;;;;;1.67;1.67;;;;;17.68;59.21;101544.72;5099871;27;45377;-85
2021/08/26 05:32:38;;;;;;;;;2.33;2.33;;;;;17.74;59.31;101549.19;5099960;27;45413;-85
2021/08/26 05:35:04;;;;;;;;;1.67;1.67;;;;;17.71;59.70;101546.50;5099458;27;45532;-85
2021/08/26 05:37:29;;;;;;;;;1.67;1.67;;;;;17.80;59.66;101556.28;5099623;27;45774;-85
2021/08/26 05:39:55;;;;;;;;;1.33;1.33;;;;;17.81;59.43;101555.38;5099409;27;45471;-86
2021/08/26 05:42:20;;;;;;;;;2.33;2.33;;;;;17.79;59.48;101552.72;5099538;27;45313;-84
2021/08/26 05:44:45;;;;;;;;;4.00;2.67;;;;;17.75;59.32;101539.41;5097310;27;47826;-85
2021/08/26 05:47:11;;;;;;;;;2.67;2.67;;;;;17.80;59.37;101548.28;5099079;27;45467;-86
2021/08/26 05:49:36;;;;;;;;;4.00;2.67;;;;;17.77;59.56;101538.53;5099045;27;45586;-86
2021/08/26 05:52:02;;;;;;;;;2.67;2.00;;;;;17.86;59.45;101542.97;5099281;27;45468;-85
2021/08/26 05:54:27;;;;;;;;;4.67;2.33;;;;;17.89;59.24;101542.09;5098867;27;46152;-87
2021/08/26 05:56:53;;;;;;;;;2.33;2.33;;;;;17.85;59.38;101546.53;5099334;27;45251;-88
2021/08/26 05:59:18;;;;;;;;;2.33;1.67;;;;;17.82;59.64;101541.19;5099169;27;45215;-87
2021/08/26 06:01:44;;;;;;;;;3.67;3.00;;;;;17.84;59.74;101547.41;5099503;27;45372;-86
2021/08/26 06:04:09;;;;;;;;;4.33;4.00;;;;;17.82;59.47;101542.09;5100057;27;47022;-86
2021/08/26 06:06:35;;;;;;;;;3.00;2.33;;;;;17.85;59.63;101551.84;5097655;27;45424;-87
2021/08/26 06:09:00;;;;;;;;;3.33;2.00;;;;;17.80;59.60;101543.88;5099244;27;45299;-86
2021/08/26 06:11:26;;;;;;;;;5.33;3.00;;;;;17.85;59.64;101557.16;5099767;27;45886;-86
2021/08/26 06:13:51;;;;;;;;;4.33;2.67;;;;;17.86;59.44;101558.94;5098758;27;46287;-85
2021/08/26 06:16:16;;;;;;;;;3.00;2.67;;;;;17.89;59.66;101556.28;5098962;27;45368;-88
2021/08/26 06:18:42;;;;;;;;;2.67;2.67;;;;;17.88;59.75;101548.28;5098913;27;45371;-86
2021/08/26 06:21:10;;;;;;;;;4.00;4.00;;;;;17.96;59.55;101561.59;5098765;27;45313;-85
2021/08/26 06:23:35;;;;;;;;;3.67;3.67;;;;;17.97;59.51;101560.69;5098524;27;46237;-89
2021/08/26 06:26:00;;;;;;;;;4.33;3.67;;;;;17.97;59.84;101558.03;5098463;27;45480;-88
2021/08/26 06:28:26;;;;;;;;;4.33;3.00;;;;;17.99;59.66;101565.16;5097220;27;45353;-83
2021/08/26 06:30:51;;;;;;;;;3.33;3.00;;;;;17.99;60.31;101559.81;5098786;27;45285;-86
2021/08/26 06:33:18;;;;;;;;;1.33;1.00;;;;;18.01;60.29;101563.38;5098484;27;46318;-88
2021/08/26 06:35:43;;;;;;;;;2.33;2.00;;;;;18.02;59.56;101566.91;5098596;27;45463;-88
2021/08/26 06:38:09;;;;;;;;;4.00;3.00;;;;;17.95;59.86;101555.38;5099131;27;45256;-87
2021/08/26 06:40:34;;;;;;;;;3.00;2.00;;;;;18.01;60.08;101566.03;5107107;27;45186;-86
2021/08/26 06:43:00;;;;;;;;;2.67;2.67;;;;;18.00;60.00;101561.56;5101421;27;45477;-87
2021/08/26 06:45:25;;;;;;;;;3.00;3.00;;;;;17.95;60.02;101547.41;5099299;27;45440;-86
2021/08/26 06:47:51;;;;;;;;;3.00;2.67;;;;;17.98;60.35;101554.50;5105439;27;45547;-88
2021/08/26 06:50:17;;;;;;;;;2.67;2.67;;;;;18.00;59.90;101558.06;5100798;27;45365;-85
2021/08/26 06:52:43;;;;;;;;;2.67;2.67;;;;;18.01;60.16;101562.47;5105479;27;45951;-85
2021/08/26 06:55:08;;;;;;;;;5.00;2.67;;;;;18.00;60.47;101563.38;5113948;27;45233;-85
2021/08/26 06:57:33;;;;;;;;;2.00;2.00;;;;;18.03;60.52;101563.34;5114165;27;45421;-85
2021/08/26 06:59:59;;;;;;;;;2.33;2.00;;;;;18.05;60.48;101562.47;5100436;27;45446;-85
2021/08/26 07:02:24;;;;;;;;;2.00;2.00;;;;;18.04;60.47;101549.19;5099609;27;45735;-86
2021/08/26 07:04:50;;;;;;;;;4.67;3.00;;;;;18.05;60.53;101551.84;5108790;27;45431;-86
2021/08/26 07:07:15;;;;;;;;;4.67;3.00;;;;;18.08;60.68;101556.28;5111037;27;45779;-86
2021/08/26 07:09:40;;;;;;;;;6.33;5.00;;;;;18.04;60.35;101550.03;5111804;27;45206;-86
2021/08/26 07:12:06;;;;;;;;;4.33;3.00;;;;;18.10;60.65;101559.81;5104414;27;47249;-86
2021/08/26 07:14:32;;;;;;;;;4.00;4.00;;;;;18.03;60.75;101544.72;5106422;27;45242;-85
2021/08/26 07:16:57;;;;;;;;;3.00;3.00;;;;;18.09;60.81;101546.50;5107386;27;45238;-87
2021/08/26 07:19:22;;;;;;;;;5.33;4.00;;;;;18.12;60.88;101539.41;5107480;27;45192;-87
2021/08/26 07:21:48;;;;;;;;;7.67;5.00;;;;;18.20;60.76;101551.84;5107747;27;46037;-86
2021/08/26 07:24:15;;;;;;;;;7.00;4.67;;;;;18.20;60.47;101549.19;5114542;27;45247;-86
2021/08/26 07:26:41;;;;;;;;;5.00;4.33;;;;;18.22;60.94;101542.09;5113139;27;45445;-87
2021/08/26 07:29:06;;;;;;;;;6.00;5.00;;;;;18.31;60.73;101547.41;5116714;27;45384;-86
2021/08/26 07:31:31;;;;;;;;;4.00;4.00;;;;;18.35;60.64;101550.94;5124435;27;45564;-86
2021/08/26 07:33:57;;;;;;;;;3.00;3.00;;;;;18.34;60.56;101544.72;5129692;27;44675;-87
2021/08/26 07:36:22;;;;;;;;;5.00;4.33;;;;;18.32;60.74;101535.84;5130175;27;44862;-86
2021/08/26 07:38:48;;;;;;;;;4.00;3.67;;;;;18.45;60.79;101547.38;5130545;27;44774;-87
2021/08/26 07:41:13;;;;;;;;;4.33;4.33;;;;;18.47;60.50;101550.00;5123663;27;45460;-86
2021/08/26 07:43:38;;;;;;;;;5.67;4.33;;;;;18.47;60.51;101542.03;5108970;27;44795;-86
2021/08/26 07:46:05;;;;;;;;;3.33;3.00;;;;;18.53;60.54;101547.34;5105586;27;45296;-87
2021/08/26 07:48:31;;;;;;;;;6.00;5.00;;;;;18.55;60.81;101548.22;5104278;27;45349;-86
2021/08/26 07:51:02;;;;;;;;;7.33;5.00;;;;;18.55;60.66;101545.56;5103560;27;46087;-86
2021/08/26 07:53:28;;;;;;;;;6.67;5.33;;;;;18.60;60.49;101541.13;5102970;27;45520;-86
2021/08/26 07:55:53;;;;;;;;;4.33;4.33;;;;;18.72;60.58;101557.91;5102287;27;45305;-87
2021/08/26 07:58:18;;;;;;;;;4.67;4.67;;;;;18.74;60.30;101549.03;5101891;27;45335;-86
2021/08/26 08:00:44;;;;;;;;;4.67;4.67;;;;;18.84;60.01;101551.69;5134616;27;46379;-87
2021/08/26 08:03:09;;;;;;;;;6.67;5.00;;;;;18.88;60.06;101549.88;5100219;27;45346;-87
2021/08/26 08:05:35;;;;;;;;;6.67;5.33;;;;;18.86;60.10;101544.56;5101223;27;45469;-86
2021/08/26 08:08:00;;;;;;;;;6.67;4.67;;;;;18.93;60.29;101556.09;5101318;27;45371;-87
2021/08/26 08:10:25;;;;;;;;;6.67;5.00;;;;;18.94;60.22;101556.06;5100813;27;46311;-86
2021/08/26 08:12:51;;;;;;;;;7.33;4.67;;;;;18.97;60.04;101552.53;5101011;27;45399;-86
2021/08/26 08:15:16;;;;;;;;;6.67;5.33;;;;;19.00;59.79;101556.94;5101021;27;45762;-86
2021/08/26 08:17:42;;;;;;;;;6.00;4.67;;;;;19.03;60.12;101557.81;5101028;27;45387;-86
2021/08/26 08:20:09;;;;;;;;;7.67;7.00;;;;;19.06;59.62;101549.78;5100848;27;46253;-86
2021/08/26 08:22:35;;;;;;;;;4.00;4.00;;;;;19.12;59.63;101551.53;5100584;27;45233;-87
2021/08/26 08:25:00;;;;;;;;;7.67;4.33;;;;;19.18;59.73;101548.00;5100552;27;45462;-87
2021/08/26 08:27:26;;;;;;;;;7.00;3.67;;;;;19.21;59.69;101542.63;5100996;27;45487;-88
2021/08/26 08:29:51;;;;;;;;;8.33;6.00;;;;;19.26;59.98;101534.63;5100426;27;45436;-88
2021/08/26 08:32:17;;;;;;;;;8.00;4.67;;;;;19.35;59.88;101539.03;5100288;27;45467;-87
2021/08/26 08:34:42;;;;;;;;;5.33;3.67;;;;;19.48;59.62;101537.16;5100526;27;45290;-87
2021/08/26 08:37:08;;;;;;;;;5.33;5.33;;;;;19.44;59.41;101529.16;5100805;27;45277;-87
2021/08/26 08:39:33;;;;;;;;;6.33;4.00;;;;;19.55;59.56;101537.09;5100268;27;45957;-88
2021/08/26 08:41:59;;;;;;;;;7.00;6.00;;;;;19.68;59.15;101542.34;5100195;27;45372;-88
2021/08/26 08:44:24;;;;;;;;;7.67;5.33;;;;;19.73;59.39;101551.19;5097305;27;45377;-87
2021/08/26 08:46:50;;;;;;;;;4.00;4.00;;;;;19.73;59.56;101548.53;5100102;27;45306;-88
2021/08/26 08:49:20;;;;;;;;;7.33;4.67;;;;;19.77;59.21;101542.28;5100454;27;45536;-89
2021/08/26 08:51:46;;;;;;;;;4.67;4.67;;;;;19.85;59.34;101547.53;5100613;27;45403;-88
2021/08/26 08:54:11;;;;;;;;;4.67;3.67;;;;;19.88;58.86;101552.81;5106523;27;45356;-84
2021/08/26 08:56:37;;;;;;;;;3.00;3.00;;;;;19.92;59.29;101555.50;5111518;27;44926;-87
2021/08/26 08:59:03;;;;;;;;;4.00;4.00;;;;;19.90;58.89;101542.16;5112900;27;46121;-86
2021/08/26 09:01:29;;;;;;;;;5.67;4.00;;;;;19.93;59.10;101536.78;5104623;27;45332;-86
2021/08/26 09:03:55;;;;;;;;;4.00;4.00;;;;;20.00;58.92;101543.84;5099175;27;45344;-85
2021/08/26 09:06:20;;;;;;;;;5.33;3.33;;;;;20.01;59.11;101544.72;5100462;27;45277;-86
2021/08/26 09:09:04;;;;;;;;;8.00;5.00;;;;;20.05;58.91;101549.13;5099657;27;46208;-86
2021/08/26 09:11:30;;;;;;;;;4.33;4.00;;;;;20.06;59.16;101536.66;5098468;27;45424;-86
2021/08/26 09:13:55;;;;;;;;;5.33;4.00;;;;;20.02;59.17;101531.38;5099548;27;45221;-86
2021/08/26 09:16:39;;;;;;;;;4.00;4.00;;;;;20.14;58.96;101545.53;5100076;27;45307;-86
2021/08/26 09:19:34;;;;;;;;;3.67;3.00;;;;;20.17;58.92;101545.50;5100122;27;45428;-86
2021/08/26 09:22:05;;;;;;;;;3.00;3.00;;;;;20.18;59.28;101536.59;5099802;27;45478;-87
2021/08/26 09:24:47;;;;;;;;;4.00;4.00;;;;;20.24;58.96;101536.50;5098305;27;45561;-86
2021/08/26 09:27:36;;;;;;;;;4.00;4.00;;;;;20.28;59.47;101547.19;5099691;27;45719;-87
2021/08/26 09:30:16;;;;;;;;;5.00;4.00;;;;;20.27;60.12;101551.63;5100738;27;45384;-86
2021/08/26 09:32:50;;;;;;;;;5.00;3.00;;;;;20.22;60.12;101542.78;5100649;27;45300;-86
2021/08/26 09:35:19;;;;;;;;;5.00;3.00;;;;;20.25;60.05;101548.09;5100337;27;45340;-86
2021/08/26 09:37:50;;;;;;;;;4.00;4.00;;;;;20.27;60.30;101542.72;5098612;27;45506;-85
2021/08/26 09:40:17;;;;;;;;;3.33;3.33;;;;;20.29;59.94;101543.59;5099672;27;45533;-87
2021/08/26 09:42:43;;;;;;;;;4.67;3.00;;;;;20.28;59.88;101540.06;5099185;27;45383;-86
2021/08/26 09:45:26;;;;;;;;;3.00;3.00;;;;;20.30;59.79;101535.59;5099293;27;45237;-85
2021/08/26 09:48:07;;;;;;;;;4.67;3.67;;;;;20.31;59.83;101528.44;5099995;27;45309;-85
2021/08/26 09:50:53;;;;;;;;;5.00;4.00;;;;;20.36;59.91;101534.63;5099355;27;46518;-86
2021/08/26 09:53:31;;;;;;;;;3.67;2.00;;;;;20.31;59.65;101531.13;5098152;27;46597;-88
2021/08/26 09:56:04;;;;;;;;;5.00;3.67;;;;;20.40;59.43;101530.13;5099039;27;45465;-88
2021/08/26 09:58:34;;;;;;;;;3.00;3.00;;;;;20.40;59.34;101524.78;5099537;27;45337;-87
2021/08/26 10:01:17;;;;;;;;;7.00;3.00;;;;;20.48;59.67;101529.16;5098135;27;46485;-87
2021/08/26 10:03:43;;;;;;;;;3.33;3.00;;;;;20.56;59.48;101534.41;5098323;27;45308;-87
2021/08/26 10:06:10;;;;;;;;;5.67;2.33;;;;;20.61;59.32;101529.00;5099475;27;45259;-87
2021/08/26 10:08:38;;;;;;;;;4.67;3.00;;;;;20.58;59.32;101508.56;5099017;27;45494;-86
2021/08/26 10:11:07;;;;;;;;;4.67;4.00;;;;;20.69;59.05;101521.78;5098083;27;47679;-88
2021/08/26 10:13:36;;;;;;;;;4.00;3.00;;;;;20.81;59.54;101533.22;5100923;27;45227;-88
2021/08/26 10:16:02;;;;;;;;;4.00;3.00;;;;;20.82;59.31;101524.28;5098666;27;45397;-88
2021/08/26 10:18:29;;;;;;;;;4.00;4.00;;;;;20.97;60.14;101519.66;5101429;27;45279;-88
2021/08/26 10:20:58;;;;;;;;;4.00;4.00;;;;;21.11;59.60;101522.19;5100331;27;46158;-86
2021/08/26 10:23:25;;;;;;;;;6.00;5.00;;;;;21.25;59.66;101508.59;5101031;27;45260;-88
2021/08/26 10:25:54;;;;;;;;;3.00;3.00;;;;;21.64;59.17;101505.28;5100862;27;45447;-87
2021/08/26 10:28:21;;;;;;;;;3.00;3.00;;;;;21.95;58.86;101503.94;5100401;27;45393;-88
2021/08/26 10:30:46;;;;;;;;;3.00;3.00;;;;;22.32;58.40;101521.97;5104696;27;45312;-86
2021/08/26 10:33:20;;;;;;;;;4.00;4.00;;;;;22.53;57.95;101506.38;5107752;27;45412;-86
2021/08/26 10:36:00;;;;;;;;;4.00;3.00;;;;;22.98;57.70;101515.28;5106502;27;45116;-86
2021/08/26 10:38:32;;;;;;;;;3.67;2.00;;;;;23.42;55.22;101521.44;5106468;27;45463;-85
2021/08/26 10:41:19;;;;;;;;;3.00;3.00;;;;;23.55;55.66;101509.53;5112824;27;45248;-85
2021/08/26 10:43:54;;;;;;;;;3.00;3.00;;;;;23.54;55.07;101510.44;5116705;27;45148;-86
2021/08/26 10:47:07;;;;;;;;;2.00;2.00;;;;;23.46;54.99;101509.75;5109569;27;44664;-86
2021/08/26 10:50:19;;;;;;;;;3.67;3.00;;;;;23.36;54.55;101518.00;5103716;27;45360;-86
2021/08/26 10:53:04;;;;;;;;;1.33;1.33;;;;;23.28;54.83;101516.41;5107288;27;45851;-87
2021/08/26 10:55:33;;;;;;;;;3.00;3.00;;;;;23.20;54.65;101514.81;5109405;27;45307;-86
2021/08/26 10:58:17;;;;;;;;;1.00;1.00;;;;;23.27;54.32;101514.66;5109536;27;45258;-85
2021/08/26 11:00:44;;;;;;;;;2.67;2.00;;;;;23.28;54.91;101506.56;5106240;27;45226;-85
2021/08/26 11:03:10;;;;;;;;;2.33;2.00;;;;;23.33;54.16;101515.38;5106461;27;46174;-85
2021/08/26 11:05:37;;;;;;;;;2.00;2.00;;;;;23.29;53.98;101504.78;5110965;27;45464;-86
2021/08/26 11:08:33;;;;;;;;;2.00;2.00;;;;;23.20;53.51;101525.53;5108936;27;45342;-89
2021/08/26 11:11:30;;;;;;;;;4.00;2.00;;;;;23.00;53.74;101516.13;5081343;28;45532;-87
2021/08/26 11:14:01;;;;;;;;;2.33;2.33;;;;;22.95;53.92;101526.06;5064309;28;45612;-87
2021/08/26 11:16:27;;;;;;;;;2.33;1.00;;;;;23.02;54.21;101530.38;5058200;28;45477;-87
2021/08/26 11:18:53;;;;;;;;;4.00;3.00;;;;;23.14;54.16;101531.00;5075544;28;45367;-86
2021/08/26 11:21:40;;;;;;;;;2.00;2.00;;;;;23.19;53.89;101526.44;5075401;28;45447;-87
2021/08/26 11:24:06;;;;;;;;;3.00;3.00;;;;;23.14;53.15;101528.34;5075282;28;45555;-87
2021/08/26 11:26:43;;;;;;;;;3.00;2.67;;;;;23.05;53.15;101529.44;5075130;28;45247;-85
2021/08/26 11:29:18;;;;;;;;;2.00;2.00;;;;;22.95;53.60;101526.06;5075343;28;45469;-87
2021/08/26 11:31:52;;;;;;;;;1.00;1.00;;;;;22.82;53.41;101527.28;5076208;28;45300;-86